Time,TemperatureF,DewpointF,PressureIn,WindDirection,WindDirectionDegrees,WindSpeedMPH,WindSpeedGustMPH,Humidity,HourlyPrecipIn,Conditions,Clouds,dailyrainin,SoftwareType,DateUTC
2013-10-10 00:02:00,56.3,41.2,29.92,North,0,0.0,0.0,57,0.00,,,-99.99,Weather View 32 v70,2013-10-10 05:02:00,
2013-10-10 00:07:00,56.3,41.2,29.92,North,0,0.0,0.0,57,0.00,,,-99.99,Weather View 32 v70,2013-10-10 05:07:00,
2013-10-10 00:17:00,56.1,41.1,29.92,North,0,0.0,0.0,57,0.00,,,-99.99,Weather View 32 v70,2013-10-10 05:17:00,
2013-10-10 00:22:00,56.1,41.5,29.92,North,0,0.0,0.0,58,0.00,,,-99.99,Weather View 32 v70,2013-10-10 05:22:00,
2013-10-10 00:32:00,55.9,41.3,29.92,North,0,0.0,0.0,58,0.00,,,-99.99,Weather View 32 v70,2013-10-10 05:32:00,
2013-10-10 00:42:00,55.9,41.3,29.92,North,0,0.0,0.0,58,0.00,,,-99.99,Weather View 32 v70,2013-10-10 05:42:00,
2013-10-10 00:47:00,55.9,41.3,29.92,North,357,0.0,0.0,58,0.00,,,-99.99,Weather View 32 v70,2013-10-10 05:47:00,
2013-10-10 00:56:00,55.9,40.9,29.92,North,357,3.0,3.0,57,0.00,,,-99.99,Weather View 32 v70,2013-10-10 05:56:00,
2013-10-10 01:01:00,55.8,41.2,29.89,North,357,0.0,3.0,58,0.00,,,-99.99,Weather View 32 v70,2013-10-10 06:01:00,
2013-10-10 01:06:00,55.8,41.2,29.89,North,357,0.0,3.0,58,0.00,,,-99.99,Weather View 32 v70,2013-10-10 06:06:00,
2013-10-10 01:16:00,55.6,41.0,29.89,North,357,0.0,3.0,58,0.00,,,-99.99,Weather View 32 v70,2013-10-10 06:16:00,
2013-10-10 01:21:00,55.6,41.0,29.89,North,357,0.0,3.0,58,0.00,,,-99.99,Weather View 32 v70,2013-10-10 06:21:00,
2013-10-10 01:31:00,55.6,41.0,29.89,North,357,0.0,3.0,58,0.00,,,-99.99,Weather View 32 v70,2013-10-10 06:31:00,
2013-10-10 01:36:00,55.6,41.0,29.89,North,357,0.0,3.0,58,0.00,,,-99.99,Weather View 32 v70,2013-10-10 06:36:00,
2013-10-10 01:46:00,55.4,41.3,29.89,North,357,0.0,3.0,59,0.00,,,-99.99,Weather View 32 v70,2013-10-10 06:46:00,
2013-10-10 01:51:00,55.2,41.1,29.89,North,357,0.0,3.0,59,0.00,,,-99.99,Weather View 32 v70,2013-10-10 06:51:00,
2013-10-10 01:56:00,55.2,41.1,29.89,North,357,0.0,3.0,59,0.00,,,-99.99,Weather View 32 v70,2013-10-10 06:56:00,
2013-10-10 02:06:00,54.9,41.2,29.89,North,357,0.0,0.0,60,0.00,,,-99.99,Weather View 32 v70,2013-10-10 07:06:00,
2013-10-10 02:16:00,54.7,41.5,29.89,North,357,0.0,0.0,61,0.00,,,-99.99,Weather View 32 v70,2013-10-10 07:16:00,
2013-10-10 02:21:00,54.9,41.6,29.89,North,357,0.0,0.0,61,0.00,,,-99.99,Weather View 32 v70,2013-10-10 07:21:00,
2013-10-10 02:31:00,54.9,42.1,29.89,North,357,0.0,0.0,62,0.00,,,-99.99,Weather View 32 v70,2013-10-10 07:31:00,
2013-10-10 02:41:00,55.4,43.0,29.89,North,357,0.0,0.0,63,0.00,,,-99.99,Weather View 32 v70,2013-10-10 07:41:00,
2013-10-10 02:47:00,55.8,43.7,29.89,North,357,0.0,0.0,64,0.00,,,-99.99,Weather View 32 v70,2013-10-10 07:47:00,
2013-10-10 02:57:00,55.9,43.9,29.89,North,357,0.0,0.0,64,0.00,,,-99.99,Weather View 32 v70,2013-10-10 07:57:00,
2013-10-10 03:02:00,56.1,44.5,29.89,North,357,0.0,0.0,65,0.00,,,-99.99,Weather View 32 v70,2013-10-10 08:02:00,
2013-10-10 03:12:00,56.1,44.5,29.89,North,357,0.0,0.0,65,0.00,,,-99.99,Weather View 32 v70,2013-10-10 08:12:00,
2013-10-10 03:17:00,56.1,44.5,29.86,North,357,0.0,0.0,65,0.00,,,-99.99,Weather View 32 v70,2013-10-10 08:17:00,
2013-10-10 03:27:00,55.9,44.7,29.86,North,357,0.0,0.0,66,0.00,,,-99.99,Weather View 32 v70,2013-10-10 08:27:00,
2013-10-10 03:32:00,55.8,44.5,29.86,North,357,0.0,0.0,66,0.00,,,-99.99,Weather View 32 v70,2013-10-10 08:32:00,
2013-10-10 03:37:00,55.6,44.8,29.86,North,357,0.0,0.0,67,0.00,,,-99.99,Weather View 32 v70,2013-10-10 08:37:00,
2013-10-10 03:47:00,55.8,45.7,29.86,North,357,0.0,0.0,69,0.00,,,-99.99,Weather View 32 v70,2013-10-10 08:47:00,
2013-10-10 03:52:00,55.9,46.3,29.86,North,357,0.0,0.0,70,0.00,,,-99.99,Weather View 32 v70,2013-10-10 08:52:00,
2013-10-10 04:01:00,56.3,47.0,29.86,North,357,0.0,0.0,71,0.00,,,-99.99,Weather View 32 v70,2013-10-10 09:01:00,
2013-10-10 04:06:00,56.3,47.4,29.86,NNE,17,0.0,0.0,72,0.00,,,-99.99,Weather View 32 v70,2013-10-10 09:06:00,
2013-10-10 04:11:00,56.5,47.5,29.86,NNE,17,0.0,0.0,72,0.00,,,-99.99,Weather View 32 v70,2013-10-10 09:11:00,
2013-10-10 04:16:00,56.7,47.7,29.86,NNE,17,0.0,0.0,72,0.00,,,-99.99,Weather View 32 v70,2013-10-10 09:16:00,
2013-10-10 04:26:00,56.7,47.7,29.86,NNE,17,0.0,0.0,72,0.00,,,-99.99,Weather View 32 v70,2013-10-10 09:26:00,
2013-10-10 04:36:00,56.8,47.9,29.86,NNE,16,0.0,3.0,72,0.00,,,-99.99,Weather View 32 v70,2013-10-10 09:36:00,
2013-10-10 04:41:00,56.7,47.7,29.86,NNE,16,0.0,3.0,72,0.00,,,-99.99,Weather View 32 v70,2013-10-10 09:41:00,
2013-10-10 04:46:00,56.7,48.1,29.86,NNE,16,0.0,3.0,73,0.00,,,-99.99,Weather View 32 v70,2013-10-10 09:46:00,
2013-10-10 04:56:00,56.5,47.9,29.86,NNE,16,0.0,3.0,73,0.00,,,-99.99,Weather View 32 v70,2013-10-10 09:56:00,
2013-10-10 05:01:00,56.5,47.9,29.86,NNE,21,0.0,3.0,73,0.00,,,-99.99,Weather View 32 v70,2013-10-10 10:01:00,
2013-10-10 05:11:00,57.2,49.0,29.86,ESE,102,3.0,6.0,74,0.00,,,-99.99,Weather View 32 v70,2013-10-10 10:11:00,
2013-10-10 05:16:00,57.6,49.3,29.86,East,85,0.0,6.0,74,0.00,,,-99.99,Weather View 32 v70,2013-10-10 10:16:00,
2013-10-10 05:26:00,57.7,49.1,29.86,East,97,2.0,6.0,73,0.00,,,-99.99,Weather View 32 v70,2013-10-10 10:26:00,
2013-10-10 05:36:00,57.9,48.6,29.86,ESE,115,2.0,6.0,71,0.00,,,-99.99,Weather View 32 v70,2013-10-10 10:36:00,
2013-10-10 05:41:00,57.9,48.6,29.86,ENE,71,3.0,6.0,71,0.00,,,-99.99,Weather View 32 v70,2013-10-10 10:41:00,
2013-10-10 05:47:00,57.9,48.2,29.86,SE,136,0.0,6.0,70,0.00,,,-99.99,Weather View 32 v70,2013-10-10 10:47:00,
2013-10-10 05:52:00,57.9,47.8,29.86,ESE,106,0.0,6.0,69,0.00,,,-99.99,Weather View 32 v70,2013-10-10 10:52:00,
2013-10-10 05:57:00,58.1,48.0,29.86,ESE,118,0.0,6.0,69,0.00,,,-99.99,Weather View 32 v70,2013-10-10 10:57:00,
2013-10-10 06:07:00,57.9,47.8,29.86,SE,128,0.0,6.0,69,0.00,,,-99.99,Weather View 32 v70,2013-10-10 11:07:00,
2013-10-10 06:12:00,57.9,47.8,29.86,East,83,0.0,6.0,69,0.00,,,-99.99,Weather View 32 v70,2013-10-10 11:12:00,
2013-10-10 06:22:00,57.9,47.8,29.83,ESE,121,0.0,6.0,69,0.00,,,-99.99,Weather View 32 v70,2013-10-10 11:22:00,
2013-10-10 06:32:00,57.7,47.6,29.83,SE,140,0.0,6.0,69,0.00,,,-99.99,Weather View 32 v70,2013-10-10 11:32:00,
2013-10-10 06:37:00,57.6,47.4,29.83,ESE,114,0.0,6.0,69,0.00,,,-99.99,Weather View 32 v70,2013-10-10 11:37:00,
2013-10-10 06:47:00,57.4,47.3,29.83,ESE,111,0.0,6.0,69,0.00,,,-99.99,Weather View 32 v70,2013-10-10 11:47:00,
2013-10-10 06:56:00,57.2,47.1,29.83,ESE,122,0.0,4.0,69,0.00,,,-99.99,Weather View 32 v70,2013-10-10 11:56:00,
2013-10-10 07:01:00,57.0,47.3,29.83,SSE,147,0.0,4.0,70,0.00,,,-99.99,Weather View 32 v70,2013-10-10 12:01:00,
2013-10-10 07:06:00,57.0,47.3,29.83,East,91,0.0,5.0,70,0.00,,,-99.99,Weather View 32 v70,2013-10-10 12:06:00,
2013-10-10 07:16:00,56.8,47.5,29.83,SE,138,0.0,5.0,71,0.00,,,-99.99,Weather View 32 v70,2013-10-10 12:16:00,
2013-10-10 07:21:00,56.7,47.3,29.83,SSE,147,0.0,5.0,71,0.00,,,-99.99,Weather View 32 v70,2013-10-10 12:21:00,
2013-10-10 07:31:00,56.7,47.3,29.83,ESE,109,0.0,5.0,71,0.00,,,-99.99,Weather View 32 v70,2013-10-10 12:31:00,
2013-10-10 07:39:00,56.5,47.2,29.83,SSE,154,0.0,5.0,71,0.00,,,-99.99,Weather View 32 v70,2013-10-10 12:39:00,
2013-10-10 07:46:00,56.3,47.4,29.83,ESE,113,2.0,5.0,72,0.00,,,-99.99,Weather View 32 v70,2013-10-10 12:46:00,
2013-10-10 07:56:00,56.1,47.2,29.83,SSE,147,0.0,5.0,72,0.00,,,-99.99,Weather View 32 v70,2013-10-10 12:56:00,
2013-10-10 08:01:00,55.9,47.0,29.83,East,99,0.0,5.0,72,0.00,,,-99.99,Weather View 32 v70,2013-10-10 13:01:00,
2013-10-10 08:11:00,55.9,47.4,29.83,SSE,154,0.0,4.0,73,0.00,,,-99.99,Weather View 32 v70,2013-10-10 13:11:00,
2013-10-10 08:16:00,56.1,47.9,29.83,East,99,3.0,3.0,74,0.00,,,-99.99,Weather View 32 v70,2013-10-10 13:16:00,
2013-10-10 08:26:00,56.3,48.1,29.83,SE,146,3.0,4.0,74,0.00,,,-99.99,Weather View 32 v70,2013-10-10 13:26:00,
2013-10-10 08:31:00,56.3,48.1,29.83,SSE,159,2.0,4.0,74,0.00,,,-99.99,Weather View 32 v70,2013-10-10 13:31:00,
2013-10-10 08:39:00,56.5,48.3,29.83,ESE,102,0.0,4.0,74,0.00,,,-99.99,Weather View 32 v70,2013-10-10 13:39:00,
2013-10-10 08:46:00,56.5,48.3,29.83,SSE,153,0.0,5.0,74,0.00,,,-99.99,Weather View 32 v70,2013-10-10 13:46:00,
2013-10-10 08:51:00,56.7,48.4,29.83,ESE,108,0.0,5.0,74,0.00,,,-99.99,Weather View 32 v70,2013-10-10 13:51:00,
2013-10-10 09:01:00,56.7,48.4,29.83,SSE,159,3.0,6.0,74,0.00,,,-99.99,Weather View 32 v70,2013-10-10 14:01:00,
2013-10-10 09:06:00,56.7,48.4,29.83,SSE,158,3.0,6.0,74,0.00,,,-99.99,Weather View 32 v70,2013-10-10 14:06:00,
2013-10-10 09:16:00,56.7,48.4,29.83,SSE,158,3.0,6.0,74,0.00,,,-99.99,Weather View 32 v70,2013-10-10 14:16:00,
2013-10-10 09:26:00,56.8,48.6,29.83,SSE,155,2.0,6.0,74,0.00,,,-99.99,Weather View 32 v70,2013-10-10 14:26:00,
2013-10-10 09:31:00,57.0,48.8,29.83,SSE,147,6.0,6.0,74,0.00,,,-99.99,Weather View 32 v70,2013-10-10 14:31:00,
2013-10-10 09:39:00,57.2,48.6,29.83,SE,124,0.0,6.0,73,0.00,,,-99.99,Weather View 32 v70,2013-10-10 14:39:00,
2013-10-10 09:47:00,57.9,49.3,29.83,ESE,105,0.0,6.0,73,0.00,,,-99.99,Weather View 32 v70,2013-10-10 14:47:00,
2013-10-10 09:52:00,58.1,49.1,29.83,SE,146,5.0,6.0,72,0.00,,,-99.99,Weather View 32 v70,2013-10-10 14:52:00,
2013-10-10 09:57:00,58.1,49.1,29.83,SSW,193,0.0,6.0,72,0.00,,,-99.99,Weather View 32 v70,2013-10-10 14:57:00,
2013-10-10 10:07:00,58.5,49.1,29.83,South,176,5.0,6.0,71,0.00,,,-99.99,Weather View 32 v70,2013-10-10 15:07:00,
2013-10-10 10:17:00,58.8,49.4,29.83,SSW,198,0.0,6.0,71,0.00,,,-99.99,Weather View 32 v70,2013-10-10 15:17:00,
2013-10-10 10:27:00,59.2,49.4,29.83,ESE,120,0.0,6.0,70,0.00,,,-99.99,Weather View 32 v70,2013-10-10 15:27:00,
2013-10-10 10:37:00,59.9,49.3,29.83,SSE,164,0.0,8.0,68,0.00,,,-99.99,Weather View 32 v70,2013-10-10 15:37:00,
2013-10-10 10:47:00,60.4,49.4,29.83,South,173,2.0,8.0,67,0.00,,,-99.99,Weather View 32 v70,2013-10-10 15:47:00,
2013-10-10 10:52:00,60.8,48.9,29.83,SSE,158,3.0,8.0,65,0.00,,,-99.99,Weather View 32 v70,2013-10-10 15:52:00,
2013-10-10 11:01:00,61.5,49.6,29.80,SE,137,2.0,8.0,65,0.00,,,-99.99,Weather View 32 v70,2013-10-10 16:01:00,
2013-10-10 11:06:00,62.1,49.7,29.80,SE,126,3.0,8.0,64,0.00,,,-99.99,Weather View 32 v70,2013-10-10 16:06:00,
2013-10-10 11:16:00,63.1,49.9,29.80,SE,138,2.0,8.0,62,0.00,,,-99.99,Weather View 32 v70,2013-10-10 16:16:00,
2013-10-10 11:26:00,64.2,50.0,29.80,SSE,158,5.0,8.0,60,0.00,,,-99.99,Weather View 32 v70,2013-10-10 16:26:00,
2013-10-10 11:36:00,64.9,49.3,29.80,SSE,162,3.0,8.0,57,0.00,,,-99.99,Weather View 32 v70,2013-10-10 16:36:00,
2013-10-10 11:41:00,65.3,49.2,29.80,SSE,156,6.0,8.0,56,0.00,,,-99.99,Weather View 32 v70,2013-10-10 16:41:00,
2013-10-10 11:51:00,66.2,49.5,29.80,SSE,160,3.0,8.0,55,0.00,,,-99.99,Weather View 32 v70,2013-10-10 16:51:00,
2013-10-10 12:01:00,66.6,48.9,29.80,South,180,3.0,7.0,53,0.00,,,-99.99,Weather View 32 v70,2013-10-10 17:01:00,
2013-10-10 12:11:00,67.1,48.3,29.80,South,184,3.0,8.0,51,0.00,,,-99.99,Weather View 32 v70,2013-10-10 17:11:00,
2013-10-10 12:21:00,68.0,49.7,29.80,SE,143,0.0,8.0,52,0.00,,,-99.99,Weather View 32 v70,2013-10-10 17:21:00,
2013-10-10 12:31:00,68.9,49.4,29.80,SSE,165,3.0,8.0,50,0.00,,,-99.99,Weather View 32 v70,2013-10-10 17:31:00,
2013-10-10 12:42:00,69.4,49.4,29.80,ESE,108,3.0,8.0,49,0.00,,,-99.99,Weather View 32 v70,2013-10-10 17:42:00,
2013-10-10 12:52:00,69.6,49.0,29.80,SE,126,0.0,8.0,48,0.00,,,-99.99,Weather View 32 v70,2013-10-10 17:52:00,
2013-10-10 12:57:00,69.8,48.6,29.80,SE,146,4.0,9.0,47,0.00,,,-99.99,Weather View 32 v70,2013-10-10 17:57:00,
2013-10-10 13:07:00,70.2,48.9,29.77,ENE,76,5.0,9.0,47,0.00,,,-99.99,Weather View 32 v70,2013-10-10 18:07:00,
2013-10-10 13:17:00,70.3,49.1,29.77,SSE,151,5.0,9.0,47,0.00,,,-99.99,Weather View 32 v70,2013-10-10 18:17:00,
2013-10-10 13:27:00,70.3,49.1,29.77,SSE,152,3.0,9.0,47,0.00,,,-99.99,Weather View 32 v70,2013-10-10 18:27:00,
2013-10-10 13:32:00,70.7,50.0,29.77,South,171,3.0,9.0,48,0.00,,,-99.99,Weather View 32 v70,2013-10-10 18:32:00,
2013-10-10 13:42:00,70.9,49.6,29.77,SE,137,3.0,9.0,47,0.00,,,-99.99,Weather View 32 v70,2013-10-10 18:42:00,
2013-10-10 13:51:00,71.2,49.3,29.77,South,183,0.0,9.0,46,0.00,,,-99.99,Weather View 32 v70,2013-10-10 18:51:00,
2013-10-10 13:57:00,71.6,49.7,29.77,ESE,104,3.0,8.0,46,0.00,,,-99.99,Weather View 32 v70,2013-10-10 18:57:00,
2013-10-10 14:06:00,72.1,49.0,29.77,SSE,166,5.0,8.0,44,0.00,,,-99.99,Weather View 32 v70,2013-10-10 19:06:00,
2013-10-10 14:16:00,72.1,49.0,29.74,ESE,113,4.0,8.0,44,0.00,,,-99.99,Weather View 32 v70,2013-10-10 19:16:00,
2013-10-10 14:21:00,72.1,49.6,29.74,SE,140,0.0,8.0,45,0.00,,,-99.99,Weather View 32 v70,2013-10-10 19:21:00,
2013-10-10 14:31:00,72.5,49.9,29.74,SSE,147,2.0,8.0,45,0.00,,,-99.99,Weather View 32 v70,2013-10-10 19:31:00,
2013-10-10 14:41:00,72.7,49.4,29.74,SSE,153,8.0,8.0,44,0.00,,,-99.99,Weather View 32 v70,2013-10-10 19:41:00,
2013-10-10 14:51:00,72.9,50.2,29.74,SSE,156,6.0,8.0,45,0.00,,,-99.99,Weather View 32 v70,2013-10-10 19:51:00,
2013-10-10 14:56:00,73.0,49.8,29.74,ESE,114,4.0,8.0,44,0.16,,,-99.99,Weather View 32 v70,2013-10-10 19:56:00,
2013-10-10 15:06:00,73.2,49.9,29.74,ESE,102,5.0,9.0,44,0.16,,,-99.99,Weather View 32 v70,2013-10-10 20:06:00,
2013-10-10 15:11:00,73.4,49.5,29.74,SSE,149,3.0,9.0,43,0.16,,,-99.99,Weather View 32 v70,2013-10-10 20:11:00,
2013-10-10 15:21:00,73.2,48.7,29.74,SE,133,5.0,9.0,42,0.16,,,-99.99,Weather View 32 v70,2013-10-10 20:21:00,
2013-10-10 15:31:00,73.6,49.6,29.74,East,96,0.0,9.0,43,0.16,,,-99.99,Weather View 32 v70,2013-10-10 20:31:00,
2013-10-10 15:42:00,74.1,49.5,29.74,South,176,4.0,9.0,42,0.16,,,-99.99,Weather View 32 v70,2013-10-10 20:42:00,
2013-10-10 15:47:00,74.1,48.8,29.74,ESE,103,5.0,9.0,41,0.16,,,-99.99,Weather View 32 v70,2013-10-10 20:47:00,
2013-10-10 15:52:00,74.1,49.5,29.74,SSE,151,3.0,9.0,42,0.16,,,-99.99,Weather View 32 v70,2013-10-10 20:52:00,
2013-10-10 15:57:00,74.3,49.0,29.74,SSE,165,0.0,9.0,41,0.00,,,-99.99,Weather View 32 v70,2013-10-10 20:57:00,
2013-10-10 16:07:00,74.7,49.3,29.74,ENE,77,4.0,9.0,41,0.00,,,-99.99,Weather View 32 v70,2013-10-10 21:07:00,
2013-10-10 16:17:00,74.7,49.3,29.74,SSE,163,5.0,9.0,41,0.00,,,-99.99,Weather View 32 v70,2013-10-10 21:17:00,
2013-10-10 16:27:00,73.4,48.8,29.74,East,95,3.0,9.0,42,0.00,,,-99.99,Weather View 32 v70,2013-10-10 21:27:00,
2013-10-10 16:32:00,73.0,48.5,29.71,SE,145,4.0,9.0,42,0.00,,,-99.99,Weather View 32 v70,2013-10-10 21:32:00,
2013-10-10 16:37:00,72.9,49.0,29.71,SE,144,0.0,10.0,43,0.00,,,-99.99,Weather View 32 v70,2013-10-10 21:37:00,
2013-10-10 16:44:00,72.7,48.8,29.71,SE,140,4.0,10.0,43,0.00,,,-99.99,Weather View 32 v70,2013-10-10 21:44:00,
2013-10-10 16:51:00,72.7,49.4,29.71,SE,144,3.0,10.0,44,0.00,,,-99.99,Weather View 32 v70,2013-10-10 21:51:00,
2013-10-10 16:57:00,72.7,49.4,29.71,SSE,150,4.0,10.0,44,0.00,,,-99.99,Weather View 32 v70,2013-10-10 21:57:00,
2013-10-10 17:06:00,72.5,49.9,29.71,North,0,0.0,10.0,45,0.00,,,-99.99,Weather View 32 v70,2013-10-10 22:06:00,
2013-10-10 17:16:00,72.3,49.7,29.71,North,0,0.0,10.0,45,0.00,,,-99.99,Weather View 32 v70,2013-10-10 22:16:00,
2013-10-10 17:21:00,72.3,49.7,29.71,SSE,147,0.0,10.0,45,0.00,,,-99.99,Weather View 32 v70,2013-10-10 22:21:00,
2013-10-10 17:31:00,72.3,50.3,29.71,SE,126,0.0,10.0,46,0.00,,,-99.99,Weather View 32 v70,2013-10-10 22:31:00,
2013-10-10 17:41:00,72.1,50.2,29.71,SE,126,0.0,6.0,46,0.00,,,-99.99,Weather View 32 v70,2013-10-10 22:41:00,
2013-10-10 17:51:00,72.1,50.2,29.71,SE,126,0.0,4.0,46,0.00,,,-99.99,Weather View 32 v70,2013-10-10 22:51:00,
2013-10-10 18:01:00,71.8,49.8,29.71,SE,125,0.0,2.0,46,0.00,,,-99.99,Weather View 32 v70,2013-10-10 23:01:00,
2013-10-10 18:06:00,71.6,50.2,29.71,SE,125,0.0,2.0,47,0.00,,,-99.99,Weather View 32 v70,2013-10-10 23:06:00,
2013-10-10 18:16:00,71.1,50.3,29.68,SE,125,0.0,0.0,48,0.00,,,-99.99,Weather View 32 v70,2013-10-10 23:16:00,
2013-10-10 18:26:00,70.5,50.4,29.68,SE,126,0.0,0.0,49,0.00,,,-99.99,Weather View 32 v70,2013-10-10 23:26:00,
2013-10-10 18:31:00,70.2,50.1,29.68,SE,126,0.0,0.0,49,0.00,,,-99.99,Weather View 32 v70,2013-10-10 23:31:00,
2013-10-10 18:37:00,69.6,50.1,29.68,SE,125,0.0,0.0,50,0.00,,,-99.99,Weather View 32 v70,2013-10-10 23:37:00,
2013-10-10 18:46:00,69.4,50.5,29.68,SE,125,0.0,0.0,51,0.00,,,-99.99,Weather View 32 v70,2013-10-10 23:46:00,
2013-10-10 18:52:00,68.9,50.5,29.68,SE,126,0.0,0.0,52,0.00,,,-99.99,Weather View 32 v70,2013-10-10 23:52:00,
2013-10-10 18:57:00,68.5,50.7,29.68,SE,126,0.0,0.0,53,0.00,,,-99.99,Weather View 32 v70,2013-10-10 23:57:00,
2013-10-10 19:07:00,68.0,50.7,29.68,SE,126,0.0,0.0,54,0.00,,,-99.99,Weather View 32 v70,2013-10-11 00:07:00,
2013-10-10 19:12:00,67.8,51.0,29.68,SE,126,0.0,0.0,55,0.00,,,-99.99,Weather View 32 v70,2013-10-11 00:12:00,
2013-10-10 19:22:00,67.5,51.7,29.68,SE,126,0.0,0.0,57,0.00,,,-99.99,Weather View 32 v70,2013-10-11 00:22:00,
2013-10-10 19:32:00,67.5,51.7,29.68,SE,126,0.0,0.0,57,0.00,,,-99.99,Weather View 32 v70,2013-10-11 00:32:00,
2013-10-10 19:42:00,67.3,52.0,29.68,SE,126,0.0,0.0,58,0.00,,,-99.99,Weather View 32 v70,2013-10-11 00:42:00,
2013-10-10 19:52:00,67.3,52.0,29.68,SE,126,0.0,0.0,58,0.00,,,-99.99,Weather View 32 v70,2013-10-11 00:52:00,
2013-10-10 20:01:00,67.3,52.4,29.68,SE,126,0.0,0.0,59,0.00,,,-99.99,Weather View 32 v70,2013-10-11 01:01:00,
2013-10-10 20:11:00,67.3,52.4,29.68,SSE,155,0.0,0.0,59,0.00,,,-99.99,Weather View 32 v70,2013-10-11 01:11:00,
2013-10-10 20:16:00,67.3,52.4,29.68,ENE,66,0.0,2.0,59,0.00,,,-99.99,Weather View 32 v70,2013-10-11 01:16:00,
2013-10-10 20:26:00,67.3,52.4,29.68,SSW,200,0.0,3.0,59,0.00,,,-99.99,Weather View 32 v70,2013-10-11 01:26:00,
2013-10-10 20:36:00,67.3,52.4,29.68,SE,142,0.0,3.0,59,0.00,,,-99.99,Weather View 32 v70,2013-10-11 01:36:00,
2013-10-10 20:46:00,66.7,51.9,29.68,SSE,161,0.0,4.0,59,0.00,,,-99.99,Weather View 32 v70,2013-10-11 01:46:00,
2013-10-10 20:56:00,66.6,51.7,29.68,SW,227,4.0,4.0,59,0.00,,,-99.99,Weather View 32 v70,2013-10-11 01:56:00,
2013-10-10 21:01:00,66.7,51.5,29.68,ESE,120,0.0,5.0,58,0.00,,,-99.99,Weather View 32 v70,2013-10-11 02:01:00,
2013-10-10 21:11:00,67.1,50.8,29.68,ENE,73,4.0,6.0,56,0.00,,,-99.99,Weather View 32 v70,2013-10-11 02:11:00,
2013-10-10 21:21:00,68.0,50.2,29.68,ESE,112,5.0,9.0,53,0.00,,,-99.99,Weather View 32 v70,2013-10-11 02:21:00,
2013-10-10 21:31:00,68.7,49.3,29.68,ESE,123,0.0,9.0,50,0.00,,,-99.99,Weather View 32 v70,2013-10-11 02:31:00,
2013-10-10 21:42:00,68.9,48.9,29.68,SSW,211,2.0,9.0,49,0.00,,,-99.99,Weather View 32 v70,2013-10-11 02:42:00,
2013-10-10 21:47:00,69.1,49.1,29.68,ESE,112,2.0,9.0,49,0.00,,,-99.99,Weather View 32 v70,2013-10-11 02:47:00,
2013-10-10 21:57:00,69.1,48.5,29.68,ESE,117,4.0,9.0,48,0.00,,,-99.99,Weather View 32 v70,2013-10-11 02:57:00,
2013-10-10 22:02:00,69.1,48.5,29.68,SE,141,4.0,9.0,48,0.00,,,-99.99,Weather View 32 v70,2013-10-11 03:02:00,
2013-10-10 22:12:00,69.1,48.5,29.68,South,171,5.0,9.0,48,0.00,,,-99.99,Weather View 32 v70,2013-10-11 03:12:00,
2013-10-10 22:22:00,69.3,48.1,29.68,ESE,103,2.0,8.0,47,0.00,,,-99.99,Weather View 32 v70,2013-10-11 03:22:00,
2013-10-10 22:32:00,69.3,47.5,29.68,SSE,166,0.0,8.0,46,0.00,,,-99.99,Weather View 32 v70,2013-10-11 03:32:00,
2013-10-10 22:37:00,69.3,47.5,29.68,SSE,153,3.0,8.0,46,0.00,,,-99.99,Weather View 32 v70,2013-10-11 03:37:00,
2013-10-10 22:42:00,69.3,47.5,29.68,SSE,147,0.0,8.0,46,0.00,,,-99.99,Weather View 32 v70,2013-10-11 03:42:00,
2013-10-10 22:48:00,69.3,47.5,29.68,SE,146,5.0,8.0,46,0.00,,,-99.99,Weather View 32 v70,2013-10-11 03:48:00,
2013-10-10 22:56:00,69.3,47.0,29.68,East,94,0.0,8.0,45,0.00,,,-99.99,Weather View 32 v70,2013-10-11 03:56:00,
2013-10-10 23:01:00,69.3,47.0,29.68,SE,131,5.0,7.0,45,0.00,,,-99.99,Weather View 32 v70,2013-10-11 04:01:00,
2013-10-10 23:06:00,69.3,47.0,29.68,SSE,159,4.0,7.0,45,0.00,,,-99.99,Weather View 32 v70,2013-10-11 04:06:00,
2013-10-10 23:16:00,69.3,47.0,29.68,ENE,78,3.0,8.0,45,0.00,,,-99.99,Weather View 32 v70,2013-10-11 04:16:00,
2013-10-10 23:26:00,69.3,47.0,29.68,ESE,111,3.0,9.0,45,0.00,,,-99.99,Weather View 32 v70,2013-10-11 04:26:00,
2013-10-10 23:31:00,69.3,47.0,29.68,ENE,74,3.0,9.0,45,0.00,,,-99.99,Weather View 32 v70,2013-10-11 04:31:00,
2013-10-10 23:36:00,69.3,46.4,29.68,SE,145,6.0,9.0,44,0.00,,,-99.99,Weather View 32 v70,2013-10-11 04:36:00,
2013-10-10 23:41:00,69.3,46.4,29.68,SSE,156,4.0,9.0,44,0.00,,,-99.99,Weather View 32 v70,2013-10-11 04:41:00,
2013-10-10 23:48:00,69.3,46.4,29.68,SSE,160,4.0,9.0,44,0.00,,,-99.99,Weather View 32 v70,2013-10-11 04:48:00,
2013-10-10 23:56:00,69.3,46.4,29.68,SE,135,5.0,9.0,44,0.00,,,-99.99,Weather View 32 v70,2013-10-11 04:56:00,